Time;durP1;ratioP1;P1;durP2;ratioP2;P2;SDS_P1;SDS_P2;PMS_P1;PMS_P2;Temp;Humidity;BMP_temperature;BMP_pressure;BME280_temperature;BME280_humidity;BME280_pressure;Samples;Min_cycle;Max_cycle;Signal;HPM_P1;HPM_P2
2022/06/12 00:00:31;;;;;;;3.88;2.03;;;21.10;52.80;;;;;;5058026;28;20419;-55
2022/06/12 00:03:01;;;;;;;4.25;1.95;;;21.10;52.90;;;;;;5059996;28;20056;-56
2022/06/12 00:05:32;;;;;;;2.72;1.50;;;21.00;52.90;;;;;;5058957;28;20044;-54
2022/06/12 00:08:00;;;;;;;6.68;2.30;;;21.00;53.00;;;;;;5057918;28;20070;-57
2022/06/12 00:10:29;;;;;;;6.05;1.77;;;21.00;53.10;;;;;;5058013;28;20416;-56
2022/06/12 00:12:57;;;;;;;4.65;1.95;;;21.00;53.10;;;;;;5059172;28;20067;-55
2022/06/12 00:15:28;;;;;;;4.18;2.00;;;21.00;53.20;;;;;;5059028;28;20048;-55
2022/06/12 00:17:57;;;;;;;5.88;2.15;;;20.90;53.20;;;;;;5059889;28;20063;-55
2022/06/12 00:20:26;;;;;;;7.53;2.42;;;20.90;53.30;;;;;;5057452;28;20419;-56
2022/06/12 00:22:55;;;;;;;5.78;1.90;;;20.90;53.30;;;;;;5059807;28;20059;-56
2022/06/12 00:25:25;;;;;;;4.50;1.95;;;20.90;53.40;;;;;;5058165;28;20044;-55
2022/06/12 00:27:53;;;;;;;4.07;1.80;;;20.80;53.40;;;;;;5058708;28;20476;-55
2022/06/12 00:30:23;;;;;;;4.50;1.95;;;20.80;53.50;;;;;;5059668;28;20063;-54
2022/06/12 00:32:52;;;;;;;8.70;2.20;;;20.80;53.60;;;;;;5059576;28;20064;-56
2022/06/12 00:35:23;;;;;;;5.47;2.05;;;20.70;53.70;;;;;;5057247;28;20057;-55
2022/06/12 00:37:51;;;;;;;7.97;2.58;;;20.70;53.70;;;;;;5060513;28;20056;-54
2022/06/12 00:40:18;;;;;;;5.63;2.15;;;20.70;53.80;;;;;;5059465;28;20057;-55
2022/06/12 00:42:49;;;;;;;4.93;2.10;;;20.70;53.90;;;;;;5058654;28;20440;-54
2022/06/12 00:45:47;;;;;;;4.43;1.90;;;20.60;54.00;;;;;;5059831;28;20416;-54
2022/06/12 00:48:18;;;;;;;8.77;2.40;;;20.70;54.40;;;;;;5023878;28;20055;-57
2022/06/12 00:50:53;;;;;;;6.28;2.08;;;20.60;54.20;;;;;;5056564;28;20062;-57
2022/06/12 00:53:26;;;;;;;5.22;2.13;;;20.60;54.40;;;;;;5057268;28;20067;-56
2022/06/12 00:56:06;;;;;;;7.17;2.00;;;20.60;54.40;;;;;;5058977;28;20483;-55
2022/06/12 00:58:38;;;;;;;5.65;1.85;;;20.60;54.60;;;;;;5060572;28;20060;-54
2022/06/12 01:01:08;;;;;;;8.60;2.53;;;20.60;54.50;;;;;;5057170;28;20040;-51
2022/06/12 01:06:33;;;;;;;7.43;2.30;;;20.60;54.60;;;;;;5057962;28;20049;-53
2022/06/12 01:06:36;;;;;;;4.15;2.08;;;20.50;54.60;;;;;;5058707;28;20514;-51
2022/06/12 01:09:10;;;;;;;11.30;2.50;;;20.50;54.70;;;;;;5056337;28;20052;-53
2022/06/12 01:11:39;;;;;;;6.15;2.20;;;20.50;55.00;;;;;;5059337;28;20053;-54
2022/06/12 01:14:09;;;;;;;6.55;2.47;;;20.50;54.90;;;;;;5060008;28;20057;-55
2022/06/12 01:16:39;;;;;;;9.35;2.15;;;20.50;54.90;;;;;;5059449;28;20051;-54
2022/06/12 01:19:09;;;;;;;6.47;2.50;;;20.50;54.90;;;;;;5060169;28;20057;-54
2022/06/12 01:22:01;;;;;;;10.57;2.55;;;20.40;55.00;;;;;;5058457;28;20063;-54
2022/06/12 01:25:03;;;;;;;7.90;2.70;;;20.50;55.10;;;;;;5062500;28;20044;-53
2022/06/12 01:28:12;;;;;;;9.63;3.47;;;20.40;55.00;;;;;;5062363;28;20067;-53
2022/06/12 01:30:49;;;;;;;11.32;2.53;;;20.40;55.10;;;;;;5061092;28;20496;-55
2022/06/12 01:33:22;;;;;;;8.68;2.90;;;20.40;55.00;;;;;;5063604;28;20526;-52
2022/06/12 01:35:57;;;;;;;10.40;2.30;;;20.40;55.00;;;;;;5059923;28;20056;-52
2022/06/12 01:38:35;;;;;;;6.30;2.28;;;20.40;55.10;;;;;;5060432;28;20052;-52
2022/06/12 01:41:11;;;;;;;7.57;2.28;;;20.40;55.20;;;;;;5058015;28;20055;-53
2022/06/12 01:43:46;;;;;;;7.43;3.00;;;20.40;55.10;;;;;;5062269;28;20055;-54
2022/06/12 01:46:20;;;;;;;8.02;2.75;;;20.40;55.10;;;;;;5061605;28;20044;-51
2022/06/12 01:49:00;;;;;;;9.35;2.50;;;20.40;55.10;;;;;;5061385;28;20049;-54
2022/06/12 01:51:34;;;;;;;10.00;2.70;;;20.30;55.10;;;;;;5056743;28;20056;-53
2022/06/12 01:54:07;;;;;;;7.00;2.53;;;20.30;55.10;;;;;;5062580;28;20060;-53
2022/06/12 01:56:40;;;;;;;6.45;2.70;;;20.30;55.10;;;;;;5063671;28;20059;-55
2022/06/12 01:59:15;;;;;;;8.63;2.50;;;20.30;55.10;;;;;;5063023;28;20063;-55
2022/06/12 02:01:50;;;;;;;12.65;3.30;;;20.30;55.20;;;;;;5056366;28;20518;-56
2022/06/12 02:04:25;;;;;;;6.30;2.30;;;20.30;55.30;;;;;;5061755;28;20064;-55
2022/06/12 02:07:01;;;;;;;10.98;3.22;;;20.20;55.20;;;;;;5059954;28;20063;-51
2022/06/12 02:09:36;;;;;;;6.53;2.72;;;20.30;55.30;;;;;;5060467;28;20863;-53
2022/06/12 02:14:55;;;;;;;10.25;2.80;;;20.20;55.10;;;;;;5068944;28;19927;-55
2022/06/12 02:17:30;;;;;;;7.15;2.45;;;20.20;55.10;;;;;;5062333;28;20052;-53
2022/06/12 02:19:58;;;;;;;9.60;3.00;;;20.20;55.20;;;;;;5061161;28;20063;-52
2022/06/12 02:22:29;;;;;;;8.40;2.97;;;20.10;55.20;;;;;;5060708;28;20056;-53
2022/06/12 02:24:59;;;;;;;8.63;3.25;;;20.10;55.30;;;;;;5062364;28;20403;-52
2022/06/12 02:27:41;;;;;;;6.45;2.58;;;20.10;55.40;;;;;;5062262;28;20493;-51
2022/06/12 02:30:14;;;;;;;9.30;2.83;;;20.10;55.50;;;;;;5062998;28;20071;-49
2022/06/12 02:32:49;;;;;;;9.88;3.15;;;20.00;55.40;;;;;;5059777;28;20052;-54
2022/06/12 02:35:21;;;;;;;9.35;3.50;;;20.00;55.50;;;;;;5060146;28;20531;-53
2022/06/12 02:37:52;;;;;;;10.00;3.30;;;19.90;55.40;;;;;;5061188;28;20400;-53
2022/06/12 02:40:25;;;;;;;8.55;3.17;;;19.90;55.50;;;;;;5061533;28;20052;-52
2022/06/12 02:42:54;;;;;;;8.30;2.97;;;19.90;55.50;;;;;;5060395;28;20052;-53
2022/06/12 02:45:26;;;;;;;10.50;3.20;;;19.90;55.90;;;;;;5061961;28;20048;-55
2022/06/12 02:47:55;;;;;;;9.90;3.28;;;19.90;55.60;;;;;;5059762;28;20063;-53
2022/06/12 02:50:26;;;;;;;14.65;3.65;;;19.80;55.60;;;;;;5059873;28;20061;-53
2022/06/12 02:53:00;;;;;;;11.63;3.20;;;19.80;55.60;;;;;;5060794;28;20072;-53
2022/06/12 02:55:44;;;;;;;14.05;3.60;;;19.70;55.60;;;;;;5062012;28;20052;-53
2022/06/12 02:58:15;;;;;;;;;;;19.70;56.20;;;;;;5061645;28;20048;-51
2022/06/12 03:00:50;;;;;;;11.35;2.85;;;19.80;55.60;;;;;;5059369;28;19931;-51
2022/06/12 03:03:27;;;;;;;12.75;3.72;;;19.80;55.70;;;;;;5062443;28;20048;-52
2022/06/12 03:05:58;;;;;;;10.23;3.17;;;19.70;55.70;;;;;;5059556;28;20068;-53
2022/06/12 03:08:28;;;;;;;10.75;3.50;;;19.60;55.80;;;;;;5058740;28;20412;-54
2022/06/12 03:10:58;;;;;;;10.07;3.58;;;19.60;55.90;;;;;;5058993;28;20412;-54
2022/06/12 03:13:28;;;;;;;9.77;3.17;;;19.60;55.90;;;;;;5061083;28;20052;-53
2022/06/12 03:15:59;;;;;;;16.65;4.00;;;19.60;56.00;;;;;;5060473;28;20063;-51
2022/06/12 03:18:30;;;;;;;12.77;3.45;;;19.50;56.00;;;;;;5060016;28;20060;-54
2022/06/12 03:21:08;;;;;;;9.52;3.00;;;19.50;56.10;;;;;;5056280;28;20049;-52
2022/06/12 03:24:01;;;;;;;7.75;2.90;;;19.50;56.10;;;;;;5061648;28;20063;-52
2022/06/12 03:26:48;;;;;;;8.10;2.78;;;19.50;56.20;;;;;;5060956;28;20052;-49
2022/06/12 03:29:27;;;;;;;10.70;2.88;;;19.50;56.20;;;;;;5059062;28;20052;-52
2022/06/12 03:32:02;;;;;;;15.07;3.58;;;19.50;56.20;;;;;;5059768;28;20499;-52
2022/06/12 03:34:36;;;;;;;9.75;2.80;;;19.50;56.30;;;;;;5059844;28;20075;-53
2022/06/12 03:37:07;;;;;;;8.70;3.00;;;19.50;56.20;;;;;;5056983;28;20051;-49
2022/06/12 03:39:42;;;;;;;6.18;2.58;;;19.40;56.10;;;;;;5061523;28;20052;-51
2022/06/12 03:42:19;;;;;;;7.88;2.92;;;19.40;56.10;;;;;;5058794;28;20063;-49
2022/06/12 03:44:57;;;;;;;10.85;3.60;;;19.40;56.10;;;;;;5058567;28;20424;-48
2022/06/12 03:47:33;;;;;;;10.65;3.05;;;19.40;56.10;;;;;;5055289;28;20637;-51
2022/06/12 03:50:08;;;;;;;6.53;2.58;;;19.40;56.10;;;;;;5057821;28;20062;-51
2022/06/12 03:52:42;;;;;;;6.55;2.40;;;19.40;56.10;;;;;;5055211;28;20060;-51
2022/06/12 03:55:14;;;;;;;8.47;2.60;;;19.40;56.10;;;;;;5058025;28;20063;-53
2022/06/12 03:57:53;;;;;;;5.45;2.97;;;19.40;56.10;;;;;;5061021;28;20420;-54
2022/06/12 04:00:27;;;;;;;7.22;2.40;;;19.30;56.00;;;;;;5056601;28;20059;-53
2022/06/12 04:02:58;;;;;;;8.38;2.63;;;19.30;56.00;;;;;;5058671;28;20067;-48
2022/06/12 04:05:31;;;;;;;8.05;2.33;;;19.30;56.00;;;;;;5057410;28;20059;-53
2022/06/12 04:08:02;;;;;;;8.80;2.73;;;19.30;56.10;;;;;;5060740;28;20522;-49
2022/06/12 04:10:33;;;;;;;9.02;2.80;;;19.20;56.10;;;;;;5060462;28;20504;-48
2022/06/12 04:13:02;;;;;;;11.75;3.20;;;19.30;56.30;;;;;;5062119;28;20067;-49
2022/06/12 04:15:33;;;;;;;5.90;2.83;;;19.20;56.30;;;;;;5060331;28;20063;-49
2022/06/12 04:18:02;;;;;;;9.10;2.80;;;19.20;56.40;;;;;;5056818;28;20060;-51
2022/06/12 04:20:40;;;;;;;7.05;2.47;;;19.20;56.50;;;;;;5057031;28;20052;-50
2022/06/12 04:23:12;;;;;;;6.45;2.70;;;19.20;56.60;;;;;;5061933;28;20061;-48
2022/06/12 04:25:45;;;;;;;14.80;4.57;;;19.20;56.60;;;;;;5062144;28;20615;-50
2022/06/12 04:28:27;;;;;;;11.68;3.63;;;19.20;56.70;;;;;;5060132;28;20045;-49
2022/06/12 04:30:55;;;;;;;7.90;3.83;;;19.20;56.90;;;;;;5057422;28;20404;-52
2022/06/12 04:33:35;;;;;;;6.85;3.03;;;19.20;56.70;;;;;;5055350;28;20052;-50
2022/06/12 04:36:05;;;;;;;6.65;2.90;;;19.20;56.90;;;;;;5055432;28;20057;-51
2022/06/12 04:38:34;;;;;;;9.35;3.33;;;19.20;56.90;;;;;;5060582;28;20044;-50
2022/06/12 04:41:02;;;;;;;9.32;3.42;;;19.20;57.00;;;;;;5059068;28;20052;-52
2022/06/12 04:43:30;;;;;;;11.65;4.18;;;19.20;57.10;;;;;;5061000;28;20056;-50
2022/06/12 04:45:59;;;;;;;16.00;4.72;;;19.20;57.30;;;;;;5057564;28;20048;-49
2022/06/12 04:48:30;;;;;;;13.68;4.18;;;19.20;57.00;;;;;;5052816;28;20056;-49
2022/06/12 04:50:58;;;;;;;13.40;3.78;;;19.20;57.30;;;;;;5056143;28;20444;-53
2022/06/12 04:53:27;;;;;;;10.02;3.78;;;19.20;57.20;;;;;;5051650;28;20056;-50
2022/06/12 04:55:55;;;;;;;11.80;4.32;;;19.20;57.20;;;;;;5060060;28;20064;-50
2022/06/12 04:58:23;;;;;;;11.98;3.45;;;19.10;57.30;;;;;;5062486;28;20044;-48
2022/06/12 05:00:51;;;;;;;10.55;3.35;;;19.10;57.30;;;;;;5062485;28;20663;-49
2022/06/12 05:03:18;;;;;;;14.55;4.65;;;19.10;57.30;;;;;;5063453;28;20056;-54
2022/06/12 05:05:47;;;;;;;14.02;5.25;;;19.10;57.40;;;;;;5062669;28;20067;-53
2022/06/12 05:08:16;;;;;;;19.48;4.85;;;19.10;57.30;;;;;;5062076;28;20067;-52
2022/06/12 05:10:46;;;;;;;15.75;5.18;;;19.20;57.50;;;;;;5062670;28;20056;-54
2022/06/12 05:13:14;;;;;;;16.85;5.20;;;19.20;57.60;;;;;;5061908;28;20053;-51
2022/06/12 05:15:45;;;;;;;13.68;4.07;;;19.20;57.90;;;;;;5062321;28;20052;-51
2022/06/12 05:18:15;;;;;;;12.05;4.85;;;19.20;57.40;;;;;;5063642;28;20403;-52
2022/06/12 05:20:45;;;;;;;18.73;5.55;;;19.20;57.50;;;;;;5058920;28;20055;-52
2022/06/12 05:23:13;;;;;;;16.23;4.70;;;19.30;57.50;;;;;;5063192;28;20045;-52
2022/06/12 05:25:42;;;;;;;23.88;5.40;;;19.30;57.40;;;;;;5063721;28;20075;-51
2022/06/12 05:28:13;;;;;;;19.15;6.05;;;19.30;57.40;;;;;;5062352;28;20076;-52
2022/06/12 05:30:41;;;;;;;15.27;4.75;;;19.40;57.30;;;;;;5059865;28;20057;-52
2022/06/12 05:33:10;;;;;;;20.23;5.43;;;19.40;57.40;;;;;;5061676;28;20044;-48
2022/06/12 05:35:38;;;;;;;20.05;5.30;;;19.40;57.10;;;;;;5058907;28;20567;-52
2022/06/12 05:38:07;;;;;;;20.92;6.03;;;19.50;57.10;;;;;;5062837;28;20045;-52
2022/06/12 05:40:38;;;;;;;20.77;5.60;;;19.50;57.20;;;;;;5061076;28;20484;-52
2022/06/12 05:43:05;;;;;;;17.08;5.15;;;19.50;57.00;;;;;;5063229;28;20420;-51
2022/06/12 05:45:35;;;;;;;19.13;5.57;;;19.50;56.90;;;;;;5061894;28;20064;-50
2022/06/12 05:48:07;;;;;;;19.95;4.57;;;19.50;56.80;;;;;;5062080;28;20052;-49
2022/06/12 05:50:44;;;;;;;16.42;4.50;;;19.60;56.50;;;;;;5058626;28;20052;-49
2022/06/12 05:53:12;;;;;;;21.30;5.60;;;19.60;56.60;;;;;;5062019;28;20052;-55
2022/06/12 05:55:39;;;;;;;22.33;5.90;;;19.60;56.50;;;;;;5060709;28;20067;-52
2022/06/12 05:58:07;;;;;;;16.98;4.85;;;19.70;56.60;;;;;;5062462;28;20064;-56
2022/06/12 06:00:36;;;;;;;18.85;5.95;;;19.70;56.60;;;;;;5059877;28;20114;-55
2022/06/12 06:03:04;;;;;;;19.15;5.25;;;19.70;56.40;;;;;;5062959;28;20052;-55
2022/06/12 06:05:35;;;;;;;17.17;4.57;;;19.70;56.60;;;;;;5060669;28;20055;-53
2022/06/12 06:08:02;;;;;;;12.48;3.83;;;19.80;56.50;;;;;;5059932;28;20048;-56
2022/06/12 06:10:30;;;;;;;15.02;4.82;;;19.80;56.50;;;;;;5061616;28;20052;-53
2022/06/12 06:12:58;;;;;;;20.42;4.65;;;19.90;56.70;;;;;;5062322;28;20060;-55
2022/06/12 06:15:25;;;;;;;19.02;5.25;;;20.00;56.70;;;;;;5061370;28;20048;-55
2022/06/12 06:17:54;;;;;;;18.92;4.25;;;20.10;56.50;;;;;;5062236;28;20488;-54
2022/06/12 06:20:25;;;;;;;16.55;5.15;;;20.10;56.40;;;;;;5060170;28;20056;-55
2022/06/12 06:22:54;;;;;;;17.17;5.22;;;20.10;56.50;;;;;;5061934;28;20063;-47
2022/06/12 06:25:23;;;;;;;20.67;5.45;;;20.20;56.20;;;;;;5061939;28;20049;-49
2022/06/12 06:27:51;;;;;;;19.75;5.38;;;20.20;56.00;;;;;;5061924;28;20048;-53
2022/06/12 06:30:20;;;;;;;20.35;5.85;;;20.20;55.80;;;;;;5062341;28;20131;-52
2022/06/12 06:32:47;;;;;;;15.48;4.75;;;20.20;56.00;;;;;;5062278;28;20060;-52
2022/06/12 06:35:17;;;;;;;16.45;4.43;;;20.20;55.70;;;;;;5060315;28;20067;-54
2022/06/12 06:37:45;;;;;;;17.02;4.95;;;20.20;55.70;;;;;;5057359;28;20044;-55
2022/06/12 06:40:14;;;;;;;15.88;5.47;;;20.30;56.00;;;;;;5060119;28;20052;-49
2022/06/12 06:42:41;;;;;;;20.67;6.38;;;20.30;55.70;;;;;;5057823;28;20045;-49
2022/06/12 06:47:56;;;;;;;17.80;5.95;;;20.30;55.70;;;;;;5067704;28;20063;-50
2022/06/12 06:50:26;;;;;;;19.30;5.65;;;20.30;55.60;;;;;;5058799;28;20435;-51
2022/06/12 06:52:53;;;;;;;22.52;5.53;;;20.30;55.80;;;;;;5059898;28;20416;-52
2022/06/12 06:55:21;;;;;;;18.17;5.30;;;20.30;55.80;;;;;;5058141;28;20527;-51
2022/06/12 06:57:50;;;;;;;22.23;5.53;;;20.30;56.10;;;;;;5061989;28;20060;-53
2022/06/12 07:00:22;;;;;;;13.40;4.95;;;20.40;55.80;;;;;;5060659;28;20385;-54
2022/06/12 07:02:50;;;;;;;19.83;5.38;;;20.40;55.70;;;;;;5060760;28;20056;-54
2022/06/12 07:05:18;;;;;;;20.27;5.40;;;20.50;55.80;;;;;;5059959;28;20097;-46
2022/06/12 07:07:48;;;;;;;21.23;5.72;;;20.50;55.80;;;;;;5061775;28;20048;-49
2022/06/12 07:10:18;;;;;;;17.08;5.25;;;20.60;55.10;;;;;;5059575;28;20063;-51
2022/06/12 07:12:46;;;;;;;22.38;5.47;;;20.60;55.00;;;;;;5060217;28;20056;-50
2022/06/12 07:15:14;;;;;;;16.85;4.97;;;20.50;54.70;;;;;;5059946;28;20052;-55
2022/06/12 07:17:42;;;;;;;16.45;4.80;;;20.60;54.70;;;;;;5061334;28;20447;-49
2022/06/12 07:20:13;;;;;;;22.73;5.63;;;20.60;54.70;;;;;;5055315;28;20075;-51
2022/06/12 07:22:43;;;;;;;17.17;4.95;;;20.60;54.60;;;;;;5060677;28;20052;-51
2022/06/12 07:25:14;;;;;;;20.15;5.25;;;20.70;54.80;;;;;;5057563;28;20059;-51
2022/06/12 07:27:44;;;;;;;18.20;5.43;;;20.80;55.00;;;;;;5061472;28;20423;-49
2022/06/12 07:30:15;;;;;;;21.85;6.28;;;20.80;54.90;;;;;;5059488;28;20488;-51
2022/06/12 07:32:43;;;;;;;18.48;5.45;;;20.80;54.30;;;;;;5060197;28;20062;-49
2022/06/12 07:35:12;;;;;;;16.40;4.88;;;20.90;54.30;;;;;;5058892;28;20067;-49
2022/06/12 07:37:40;;;;;;;19.63;5.10;;;20.90;54.50;;;;;;5060144;28;20060;-55
2022/06/12 07:40:14;;;;;;;20.13;4.75;;;20.90;53.90;;;;;;5061214;28;20047;-49
2022/06/12 07:42:42;;;;;;;19.00;5.03;;;21.00;54.20;;;;;;5059614;28;20060;-52
2022/06/12 07:45:10;;;;;;;20.92;5.28;;;21.00;53.80;;;;;;5059710;28;20067;-50
2022/06/12 07:47:38;;;;;;;22.63;5.57;;;21.10;54.10;;;;;;5056588;28;20056;-50
2022/06/12 07:50:08;;;;;;;21.95;4.70;;;21.10;53.20;;;;;;5054864;28;20059;-54
2022/06/12 07:52:40;;;;;;;20.85;4.97;;;21.10;52.80;;;;;;5057279;28;20063;-52
2022/06/12 07:55:13;;;;;;;14.80;4.07;;;21.10;52.40;;;;;;5058446;28;20416;-49
2022/06/12 07:57:41;;;;;;;14.73;4.73;;;21.10;53.60;;;;;;5061691;28;20071;-51
2022/06/12 08:00:10;;;;;;;16.88;5.20;;;21.10;53.10;;;;;;5058495;28;20052;-49
2022/06/12 08:02:38;;;;;;;22.35;4.97;;;21.10;53.00;;;;;;5057682;28;20068;-56
2022/06/12 08:05:06;;;;;;;17.13;5.05;;;21.10;52.60;;;;;;5056077;28;20052;-54
2022/06/12 08:07:34;;;;;;;14.40;4.82;;;21.10;53.00;;;;;;5060860;28;20053;-52
2022/06/12 08:10:03;;;;;;;19.25;4.72;;;21.20;53.00;;;;;;5061240;28;20054;-51
2022/06/12 08:12:33;;;;;;;15.50;4.80;;;21.20;52.20;;;;;;5059212;28;20056;-51
2022/06/12 08:15:00;;;;;;;12.93;4.30;;;21.20;52.40;;;;;;5059468;28;21231;-53
2022/06/12 08:17:28;;;;;;;18.30;5.05;;;21.30;52.50;;;;;;5056652;28;20063;-52
2022/06/12 08:22:40;;;;;;;14.90;4.18;;;21.40;51.50;;;;;;5064701;28;20070;-47
2022/06/12 08:25:09;;;;;;;19.42;5.00;;;21.40;52.10;;;;;;5058058;28;20071;-52
2022/06/12 08:27:38;;;;;;;20.33;4.85;;;21.50;52.50;;;;;;5056409;28;20057;-52
2022/06/12 08:30:07;;;;;;;20.67;4.40;;;21.50;52.40;;;;;;5055141;28;20083;-55
2022/06/12 08:32:36;;;;;;;20.65;4.95;;;21.60;52.30;;;;;;5057597;28;20060;-52
2022/06/12 08:35:10;;;;;;;17.20;4.93;;;21.60;51.50;;;;;;5057657;28;20056;-48
2022/06/12 08:37:40;;;;;;;16.73;4.93;;;21.60;51.10;;;;;;5057861;28;20048;-53
2022/06/12 08:40:14;;;;;;;16.05;4.28;;;21.70;51.30;;;;;;5060136;28;20059;-53
2022/06/12 08:42:50;;;;;;;23.05;5.28;;;21.70;52.40;;;;;;5049847;28;20079;-48
2022/06/12 08:45:21;;;;;;;17.15;4.35;;;21.80;51.30;;;;;;5057638;28;20053;-51
2022/06/12 08:47:55;;;;;;;14.77;4.45;;;21.80;51.50;;;;;;5054458;28;20048;-49
2022/06/12 08:50:28;;;;;;;14.88;4.20;;;21.80;50.90;;;;;;5053854;28;20049;-51
2022/06/12 08:53:03;;;;;;;14.93;4.20;;;21.90;51.20;;;;;;5058103;28;20056;-52
2022/06/12 08:55:38;;;;;;;11.95;3.90;;;21.90;50.80;;;;;;5058135;28;20414;-57
2022/06/12 08:58:12;;;;;;;15.48;4.40;;;22.00;50.80;;;;;;5060522;28;20056;-50
2022/06/12 09:00:40;;;;;;;14.48;3.83;;;22.10;50.60;;;;;;5054905;28;20059;-49
2022/06/12 09:03:14;;;;;;;16.42;4.35;;;22.10;50.60;;;;;;5059794;28;20127;-54
2022/06/12 09:05:51;;;;;;;19.73;4.60;;;22.10;50.20;;;;;;5051970;28;20052;-52
2022/06/12 09:08:27;;;;;;;19.08;3.95;;;22.20;49.90;;;;;;5057968;28;20053;-50
2022/06/12 09:11:03;;;;;;;19.80;4.88;;;22.30;50.30;;;;;;5058527;28;20059;-48
2022/06/12 09:13:42;;;;;;;15.90;3.65;;;22.30;49.40;;;;;;5057765;28;20067;-51
2022/06/12 09:16:17;;;;;;;10.95;3.42;;;22.30;49.40;;;;;;5054185;28;20063;-51
2022/06/12 09:18:53;;;;;;;14.55;3.85;;;22.40;49.80;;;;;;5054873;28;20056;-48
2022/06/12 09:21:29;;;;;;;15.70;4.50;;;22.40;49.20;;;;;;5055669;28;20056;-55
2022/06/12 09:24:06;;;;;;;14.90;3.72;;;22.40;49.60;;;;;;5058825;28;20048;-51
2022/06/12 09:26:45;;;;;;;17.05;3.60;;;22.50;48.50;;;;;;5052135;28;21452;-54
2022/06/12 09:29:23;;;;;;;15.27;4.03;;;22.50;47.80;;;;;;5053643;28;20052;-55
2022/06/12 09:31:58;;;;;;;15.15;3.47;;;22.50;47.90;;;;;;5050927;28;20063;-49
2022/06/12 09:34:33;;;;;;;17.02;3.78;;;22.40;49.00;;;;;;5056668;28;20063;-52
2022/06/12 09:40:07;;;;;;;18.20;4.13;;;22.40;46.80;;;;;;5064046;28;20500;-52
2022/06/12 09:42:50;;;;;;;10.77;3.15;;;22.40;47.70;;;;;;5062963;28;20060;-48
2022/06/12 09:45:25;;;;;;;12.57;3.13;;;22.50;48.10;;;;;;5063644;28;20056;-52
2022/06/12 09:48:07;;;;;;;18.33;4.18;;;22.50;48.50;;;;;;5063477;28;20051;-54
2022/06/12 09:50:45;;;;;;;17.95;3.30;;;22.60;47.70;;;;;;5053042;28;20496;-54
2022/06/12 09:53:28;;;;;;;19.05;4.45;;;22.60;46.70;;;;;;5062706;28;20055;-54
2022/06/12 09:56:01;;;;;;;12.25;2.75;;;22.60;47.00;;;;;;5062793;28;20055;-51
2022/06/12 09:58:33;;;;;;;21.38;3.42;;;22.60;47.30;;;;;;5060149;28;20063;-49
2022/06/12 10:01:05;;;;;;;13.55;3.08;;;22.70;46.60;;;;;;5059508;28;20059;-52
2022/06/12 10:03:39;;;;;;;11.65;2.58;;;22.70;47.30;;;;;;5062073;28;20492;-55
2022/06/12 10:06:18;;;;;;;13.10;3.20;;;22.70;45.60;;;;;;5061144;28;20044;-53
2022/06/12 10:08:52;;;;;;;14.00;3.30;;;22.60;44.70;;;;;;5064093;28;20060;-56
2022/06/12 10:11:23;;;;;;;8.88;2.53;;;22.70;45.10;;;;;;5061615;28;20052;-49
2022/06/12 10:13:55;;;;;;;13.93;4.00;;;22.70;45.90;;;;;;5063301;28;20053;-57
2022/06/12 10:16:28;;;;;;;14.85;3.35;;;22.70;46.30;;;;;;5062081;28;20059;-50
2022/06/12 10:19:02;;;;;;;6.53;2.67;;;22.70;45.70;;;;;;5063643;28;20048;-49
2022/06/12 10:21:34;;;;;;;12.68;2.78;;;22.80;45.30;;;;;;5059521;28;20044;-54
2022/06/12 10:24:02;;;;;;;11.48;2.70;;;22.80;46.00;;;;;;5062605;28;20083;-51
2022/06/12 10:26:33;;;;;;;12.90;3.03;;;22.80;45.30;;;;;;5063860;28;20067;-50
2022/06/12 10:29:06;;;;;;;6.75;2.20;;;22.80;44.40;;;;;;5060654;28;20067;-53
2022/06/12 10:31:47;;;;;;;9.40;2.22;;;22.80;44.80;;;;;;5058661;28;20048;-55
2022/06/12 10:34:19;;;;;;;9.13;2.33;;;22.80;45.70;;;;;;5063677;28;20492;-51
2022/06/12 10:36:46;;;;;;;14.35;2.35;;;22.80;44.90;;;;;;5058459;28;20056;-53
2022/06/12 10:39:17;;;;;;;11.90;2.50;;;22.90;44.10;;;;;;5062580;28;20067;-54
2022/06/12 10:41:49;;;;;;;8.60;2.35;;;22.90;44.60;;;;;;5062503;28;20594;-49
2022/06/12 10:44:29;;;;;;;8.57;2.22;;;22.90;43.30;;;;;;5061892;28;20052;-57
2022/06/12 10:47:15;;;;;;;5.13;1.70;;;22.90;43.30;;;;;;5063190;28;20057;-53
2022/06/12 10:49:42;;;;;;;16.38;2.10;;;22.90;43.80;;;;;;5061568;28;20064;-54
2022/06/12 10:52:17;;;;;;;5.70;1.63;;;23.00;43.70;;;;;;5060884;28;20522;-57
2022/06/12 10:54:45;;;;;;;8.20;1.83;;;23.00;43.30;;;;;;5062229;28;20497;-54
2022/06/12 10:57:33;;;;;;;8.32;1.90;;;23.10;44.90;;;;;;5060601;28;20048;-52
2022/06/12 11:00:05;;;;;;;10.05;2.05;;;23.10;43.80;;;;;;5061278;28;20447;-54
2022/06/12 11:02:56;;;;;;;8.77;2.20;;;23.10;44.00;;;;;;5060060;28;20068;-51
2022/06/12 11:05:36;;;;;;;7.95;1.50;;;23.20;44.20;;;;;;5060559;28;20048;-52
2022/06/12 11:08:16;;;;;;;4.18;1.45;;;23.30;42.80;;;;;;5063568;28;20479;-50
2022/06/12 11:10:53;;;;;;;7.60;1.60;;;23.40;43.10;;;;;;5041939;28;20055;-52
2022/06/12 11:13:34;;;;;;;5.43;1.20;;;23.40;42.60;;;;;;5059246;28;20504;-52
2022/06/12 11:16:16;;;;;;;7.07;1.60;;;23.50;41.70;;;;;;5060849;28;21270;-52
2022/06/12 11:18:59;;;;;;;6.18;1.17;;;23.50;41.50;;;;;;5059569;28;20060;-49
2022/06/12 11:21:38;;;;;;;9.57;1.40;;;23.50;42.10;;;;;;5059079;28;20064;-51
2022/06/12 11:24:17;;;;;;;4.85;1.45;;;23.50;42.40;;;;;;5063173;28;20057;-54
2022/06/12 11:27:17;;;;;;;8.27;1.52;;;23.60;42.80;;;;;;5060803;28;20491;-53
2022/06/12 11:30:10;;;;;;;6.95;1.55;;;23.70;40.70;;;;;;5056391;28;20056;-46
2022/06/12 11:32:57;;;;;;;6.30;1.38;;;23.70;40.30;;;;;;5061002;28;20060;-50
2022/06/12 11:35:37;;;;;;;3.75;1.30;;;23.70;40.60;;;;;;5057294;28;20730;-54
2022/06/12 11:38:21;;;;;;;5.93;1.38;;;23.70;40.50;;;;;;5061140;28;20063;-50
2022/06/12 11:40:55;;;;;;;4.45;1.23;;;23.70;41.10;;;;;;5059952;28;20052;-52
2022/06/12 11:43:32;;;;;;;5.35;1.35;;;23.80;41.30;;;;;;5061790;28;20056;-55
2022/06/12 11:46:15;;;;;;;7.10;1.38;;;23.80;39.80;;;;;;5060792;28;20059;-53
2022/06/12 11:49:05;;;;;;;4.70;1.08;;;23.90;39.50;;;;;;5062198;28;20504;-49
2022/06/12 11:51:43;;;;;;;4.47;1.02;;;23.90;39.60;;;;;;5059542;28;20056;-47
2022/06/12 11:54:38;;;;;;;4.13;1.17;;;24.00;38.90;;;;;;5062251;28;20059;-51
2022/06/12 11:57:13;;;;;;;5.68;1.10;;;24.00;39.00;;;;;;5060512;28;20098;-49
2022/06/12 12:00:02;;;;;;;5.15;1.30;;;24.00;38.80;;;;;;5061915;28;20049;-53
2022/06/12 12:02:54;;;;;;;7.35;1.25;;;24.10;37.80;;;;;;5060506;28;20067;-50
2022/06/12 12:05:45;;;;;;;2.28;0.90;;;24.00;37.60;;;;;;5054144;28;20511;-54
2022/06/12 12:08:26;;;;;;;5.20;1.20;;;24.10;39.80;;;;;;5062269;28;20056;-49
2022/06/12 12:11:00;;;;;;;4.55;0.82;;;24.10;37.40;;;;;;5060095;28;20049;-49
2022/06/12 12:13:31;;;;;;;5.28;1.58;;;24.10;38.60;;;;;;5061538;28;20060;-48
2022/06/12 12:16:02;;;;;;;5.03;1.40;;;24.10;37.90;;;;;;5060799;28;20059;-52
2022/06/12 12:18:37;;;;;;;6.53;1.35;;;24.10;38.80;;;;;;5062132;28;20063;-53
2022/06/12 12:21:11;;;;;;;2.97;1.00;;;24.10;39.10;;;;;;5058927;28;20044;-56
2022/06/12 12:23:44;;;;;;;2.40;0.85;;;24.10;37.70;;;;;;5062340;28;20052;-53
2022/06/12 12:26:20;;;;;;;5.85;1.10;;;24.20;38.80;;;;;;5061008;28;20488;-51
2022/06/12 12:28:51;;;;;;;1.40;0.52;;;24.20;37.50;;;;;;5060836;28;20059;-55
2022/06/12 12:31:19;;;;;;;2.05;0.80;;;24.20;38.20;;;;;;5060606;28;20052;-50
2022/06/12 12:33:49;;;;;;;4.05;1.15;;;24.20;37.40;;;;;;5059463;28;20071;-56
2022/06/12 12:42:07;;;;;;;2.10;0.80;;;24.20;37.80;;;;;;5060392;28;20056;-53
2022/06/12 12:44:36;;;;;;;2.38;0.90;;;24.20;37.30;;;;;;5061470;28;20056;-57
2022/06/12 12:47:16;;;;;;;4.30;1.10;;;24.30;37.40;;;;;;5061775;28;20496;-56
2022/06/12 12:49:44;;;;;;;6.38;1.23;;;24.30;36.60;;;;;;5059806;28;20393;-49
2022/06/12 12:52:15;;;;;;;6.65;1.00;;;24.40;36.20;;;;;;5060434;28;20420;-55
2022/06/12 12:54:47;;;;;;;7.63;1.08;;;24.50;36.50;;;;;;5061208;28;20053;-52
2022/06/12 12:57:15;;;;;;;7.78;1.77;;;24.50;37.00;;;;;;5061643;28;20603;-53
2022/06/12 12:59:45;;;;;;;4.22;1.40;;;24.50;35.80;;;;;;5060372;28;20052;-52
2022/06/12 13:02:32;;;;;;;6.40;1.20;;;24.60;35.80;;;;;;5059177;28;20053;-54
2022/06/12 13:05:01;;;;;;;5.85;1.48;;;24.60;36.10;;;;;;5059837;28;20067;-51
2022/06/12 13:07:59;;;;;;;11.60;1.63;;;24.60;36.70;;;;;;5060680;28;20064;-49
2022/06/12 13:10:48;;;;;;;8.80;1.40;;;24.70;36.00;;;;;;5059621;28;20438;-51
2022/06/12 13:13:30;;;;;;;5.00;0.95;;;24.70;36.30;;;;;;5061735;28;21179;-55
2022/06/12 13:16:04;;;;;;;6.78;1.30;;;24.70;35.30;;;;;;5060152;28;20056;-52
2022/06/12 13:18:48;;;;;;;5.50;1.35;;;24.80;36.00;;;;;;5064672;28;20428;-50
2022/06/12 13:21:22;;;;;;;4.85;1.20;;;24.70;36.50;;;;;;5061060;28;20048;-53
2022/06/12 13:24:09;;;;;;;3.35;1.10;;;24.80;35.90;;;;;;5064873;28;20063;-52
2022/06/12 13:26:42;;;;;;;13.32;1.73;;;24.80;35.00;;;;;;5065327;28;20059;-51
2022/06/12 13:29:15;;;;;;;4.88;1.55;;;24.80;35.10;;;;;;5064807;28;20053;-52